Saturday, March 28, 2015
17:44 UTC
  |  Log In   |  Register Free
Airport Search:

Pedro Bay Airport
(4K0)

Pedro Bay Airport Diagram
No Airport Diagram Available

FAA data valid effective March 05, 2015 - April 30, 2015 (unless otherwise noted).

 
 
 
 
 
 
 
 
 
 
 
 
 
 

Current Aviation Weather for Pedro Bay Airport (4K0)

METAR data is unavailable for 4K0. The nearest METAR location is at PAIL (23.7 nm SW from 4K0).

The most recent METAR observation for PAIL was updated at: 1421
METAR Summary (Translated METAR)
PAIL
251353Z 01009KT 10SM CLR 03/M07 A2949 RMK AO2 SLP988 T00331072 $
(23.7 nm SW from 4K0)
PAIL
251353Z 01009KT 10SM CLR 03/M07 A2949 RMK AO2 SLP988 T00331072 $
(23.7 nm SW from 4K0)
TAF Summary (Translated TAF)
PAIL
251125Z 2512/2612 07011G18KT P6SM SCT060 WS020/09045KT FM252000 06010KT P6SM SCT060
PAIL
251125Z 2512/2612 07011G18KT P6SM SCT060 WS020/09045KT FM252000 06010KT P6SM SCT060
  Airport Weather Conditions for 4K0

Current weather conditions are
not available for 4K0


The nearest NOAA weather station
is at ILI, (23.7 nm SW from 4K0)
  
 Current Weather at ILI
36° F
Overcast
Northeast winds at 8.1 mph
ILI NOAA Radar

Pressure: 29.37 in
Humidity: 70%
Wind: Northeast at 8.1 MPH (7 KT)
Dew Point: 27.0°F
Visibility: 10.00 mi


Airport Weather Forecast for 4K0

Translated METAR and TAF for PAIL
Translated METAR for PAIL (1743 UTC 28 March 2015)
found at http://aviationweather.gov/adds/metars/
 
METAR text: PAIL 281653Z 03007KT 10SM OVC090 02/M03 A2937 RMK AO2 SLP949 T00221028
Conditions at: PAIL (ILIAMNA , AK, US) observed 1653 UTC 28 March 2015
Temperature: 2.2°C (36°F)
Dewpoint: -2.8°C (27°F) [RH = 69%]
Pressure (altimeter): 29.37 inches Hg (994.7 mb)
[Sea-level pressure: 994.9 mb]
Winds: from the NNE (30 degrees) at 8 MPH (7 knots; 3.6 m/s)
Visibility: 10 or more miles (16+ km)
Ceiling: 9000 feet AGL
Clouds: overcast cloud deck at 9000 feet AGL
Weather: no significant weather observed at this time
Translated TAF for PAIL
Forecast for: PAIL (ILIAMNA , AK, US)
TAF Text: PAIL 281733Z 2818/2918 03007KT P6SM OVC090
Forecast period: 1800 to 2100 UTC 28 March 2015
Forecast type: FROM: standard forecast or significant change
Winds: from the NNE (30 degrees) at 8 MPH (7 knots; 3.6 m/s)
Visibility: 6 or more miles (10+ km)
Ceiling: 9000 feet AGL
Clouds: overcast cloud deck at 9000 feet AGL
Weather: no significant weather forecast for this period
TAF Text: FM282100 05010G18KT P6SM VCSH SCT045 BKN070
Forecast period: 2100 UTC 28 March 2015 to 0300 UTC 29 March 2015
Forecast type: FROM: standard forecast or significant change
Winds: from the NE (50 degrees) at 12 MPH (10 knots; 5.2 m/s)
gusting to 21 MPH (18 knots; 9.4 m/s)
Visibility: 6 or more miles (10+ km)
Ceiling: 7000 feet AGL
Clouds: scattered clouds at 4500 feet AGL
broken clouds at 7000 feet AGL
Weather: VCSH  (showers in vicinity)
TAF Text: FM290300 03007KT P6SM SCT080 BKN120
Forecast period: 0300 to 1800 UTC 29 March 2015
Forecast type: FROM: standard forecast or significant change
Winds: from the NNE (30 degrees) at 8 MPH (7 knots; 3.6 m/s)
Visibility: 6 or more miles (10+ km)
Ceiling: 12000 feet AGL
Clouds: scattered clouds at 8000 feet AGL
broken clouds at 12000 feet AGL
Weather: no significant weather forecast for this period

Find All Airport Services Find A Hotel Find A Rental Car Find A Golf Course Find A Restaurant $100 Hamburger



FBO's on the Field
FBO Company Facility Photos Services Transportation Aviation Fuel Prices: Prices include tax
Catering Weather Repair Courtesy Rental Type 100LL JetA JetA+ MOGAS 8087
 
Add another FBO Facility Photos Catering Weather Repair Courtesy Rental Type 100LL JetA JetA+ MOGAS 8087
Services Transportation Aviation Fuel Prices: Prices include tax
There are no FBO's currently reporting fuel at 4K0. List your FBO now


model-print
model-print
model-print
model-print